sensor_id;sensor_type;location;lat;lon;timestamp;P1;durP1;ratioP1;P2;durP2;ratioP2
56577;SDS011;42461;53.192;5.646;2022-08-21T00:01:56;9.98;;;5.47;;
56577;SDS011;42461;53.192;5.646;2022-08-21T00:04:22;7.57;;;5.15;;
56577;SDS011;42461;53.192;5.646;2022-08-21T00:06:51;8.85;;;6.15;;
56577;SDS011;42461;53.192;5.646;2022-08-21T00:09:18;11.15;;;5.90;;
56577;SDS011;42461;53.192;5.646;2022-08-21T00:11:45;8.13;;;5.55;;
56577;SDS011;42461;53.192;5.646;2022-08-21T00:14:12;8.10;;;5.70;;
56577;SDS011;42461;53.192;5.646;2022-08-21T00:16:38;7.78;;;5.05;;
56577;SDS011;42461;53.192;5.646;2022-08-21T00:19:05;9.75;;;5.47;;
56577;SDS011;42461;53.192;5.646;2022-08-21T00:21:32;9.65;;;5.25;;
56577;SDS011;42461;53.192;5.646;2022-08-21T00:23:59;7.82;;;5.82;;
56577;SDS011;42461;53.192;5.646;2022-08-21T00:26:25;9.75;;;5.68;;
56577;SDS011;42461;53.192;5.646;2022-08-21T00:28:51;10.85;;;5.72;;
56577;SDS011;42461;53.192;5.646;2022-08-21T00:31:18;9.25;;;5.97;;
56577;SDS011;42461;53.192;5.646;2022-08-21T00:33:44;9.13;;;5.82;;
56577;SDS011;42461;53.192;5.646;2022-08-21T00:36:12;10.90;;;6.47;;
56577;SDS011;42461;53.192;5.646;2022-08-21T00:38:38;9.70;;;6.63;;
56577;SDS011;42461;53.192;5.646;2022-08-21T00:41:05;9.13;;;6.28;;
56577;SDS011;42461;53.192;5.646;2022-08-21T00:43:33;11.57;;;5.93;;
56577;SDS011;42461;53.192;5.646;2022-08-21T00:46:00;8.50;;;6.00;;
56577;SDS011;42461;53.192;5.646;2022-08-21T00:48:26;8.75;;;6.13;;
56577;SDS011;42461;53.192;5.646;2022-08-21T00:51:05;7.85;;;5.85;;
56577;SDS011;42461;53.192;5.646;2022-08-21T00:53:32;10.57;;;5.82;;
56577;SDS011;42461;53.192;5.646;2022-08-21T00:55:58;10.90;;;6.10;;
56577;SDS011;42461;53.192;5.646;2022-08-21T00:58:27;9.85;;;6.05;;
56577;SDS011;42461;53.192;5.646;2022-08-21T01:00:53;9.73;;;5.55;;
56577;SDS011;42461;53.192;5.646;2022-08-21T01:03:20;10.95;;;6.97;;
56577;SDS011;42461;53.192;5.646;2022-08-21T01:05:47;10.13;;;5.65;;
56577;SDS011;42461;53.192;5.646;2022-08-21T01:08:15;9.00;;;5.95;;
56577;SDS011;42461;53.192;5.646;2022-08-21T01:10:41;8.68;;;5.30;;
56577;SDS011;42461;53.192;5.646;2022-08-21T01:13:08;10.90;;;5.85;;
56577;SDS011;42461;53.192;5.646;2022-08-21T01:15:37;9.32;;;5.45;;
56577;SDS011;42461;53.192;5.646;2022-08-21T01:18:04;7.75;;;5.35;;
56577;SDS011;42461;53.192;5.646;2022-08-21T01:20:32;7.65;;;6.10;;
56577;SDS011;42461;53.192;5.646;2022-08-21T01:22:58;11.40;;;5.95;;
56577;SDS011;42461;53.192;5.646;2022-08-21T01:25:24;8.30;;;6.00;;
56577;SDS011;42461;53.192;5.646;2022-08-21T01:27:50;8.43;;;5.90;;
56577;SDS011;42461;53.192;5.646;2022-08-21T01:30:22;8.05;;;5.38;;
56577;SDS011;42461;53.192;5.646;2022-08-21T01:32:48;10.13;;;5.72;;
56577;SDS011;42461;53.192;5.646;2022-08-21T01:35:15;8.85;;;5.35;;
56577;SDS011;42461;53.192;5.646;2022-08-21T01:37:42;7.47;;;5.72;;
56577;SDS011;42461;53.192;5.646;2022-08-21T01:40:08;9.82;;;5.93;;
56577;SDS011;42461;53.192;5.646;2022-08-21T01:42:35;9.18;;;5.70;;
56577;SDS011;42461;53.192;5.646;2022-08-21T01:45:02;10.48;;;5.68;;
56577;SDS011;42461;53.192;5.646;2022-08-21T01:47:28;9.35;;;5.72;;
56577;SDS011;42461;53.192;5.646;2022-08-21T01:49:54;9.80;;;5.85;;
56577;SDS011;42461;53.192;5.646;2022-08-21T01:52:22;9.57;;;5.80;;
56577;SDS011;42461;53.192;5.646;2022-08-21T01:54:48;10.45;;;6.05;;
56577;SDS011;42461;53.192;5.646;2022-08-21T01:57:14;10.55;;;6.05;;
56577;SDS011;42461;53.192;5.646;2022-08-21T01:59:40;10.35;;;6.03;;
56577;SDS011;42461;53.192;5.646;2022-08-21T02:02:06;8.20;;;5.82;;
56577;SDS011;42461;53.192;5.646;2022-08-21T02:04:33;9.80;;;5.93;;
56577;SDS011;42461;53.192;5.646;2022-08-21T02:06:59;10.02;;;6.60;;
56577;SDS011;42461;53.192;5.646;2022-08-21T02:09:26;9.50;;;5.47;;
56577;SDS011;42461;53.192;5.646;2022-08-21T02:11:52;8.88;;;5.28;;
56577;SDS011;42461;53.192;5.646;2022-08-21T02:14:18;10.13;;;5.65;;
56577;SDS011;42461;53.192;5.646;2022-08-21T02:16:45;8.32;;;5.35;;
56577;SDS011;42461;53.192;5.646;2022-08-21T02:19:12;8.57;;;5.70;;
56577;SDS011;42461;53.192;5.646;2022-08-21T02:21:38;8.93;;;5.80;;
56577;SDS011;42461;53.192;5.646;2022-08-21T02:24:04;7.90;;;5.75;;
56577;SDS011;42461;53.192;5.646;2022-08-21T02:26:31;12.25;;;5.78;;
56577;SDS011;42461;53.192;5.646;2022-08-21T02:28:57;9.50;;;5.82;;
56577;SDS011;42461;53.192;5.646;2022-08-21T02:31:23;9.00;;;5.53;;
56577;SDS011;42461;53.192;5.646;2022-08-21T02:33:49;7.20;;;5.60;;
56577;SDS011;42461;53.192;5.646;2022-08-21T02:36:19;10.10;;;5.72;;
56577;SDS011;42461;53.192;5.646;2022-08-21T02:38:45;8.80;;;5.25;;
56577;SDS011;42461;53.192;5.646;2022-08-21T02:41:12;7.63;;;5.32;;
56577;SDS011;42461;53.192;5.646;2022-08-21T02:43:39;9.02;;;5.47;;
56577;SDS011;42461;53.192;5.646;2022-08-21T02:46:05;9.57;;;5.72;;
56577;SDS011;42461;53.192;5.646;2022-08-21T02:48:32;8.70;;;6.20;;
56577;SDS011;42461;53.192;5.646;2022-08-21T02:51:00;9.73;;;5.30;;
56577;SDS011;42461;53.192;5.646;2022-08-21T02:53:27;8.15;;;5.53;;
56577;SDS011;42461;53.192;5.646;2022-08-21T02:55:54;6.65;;;5.45;;
56577;SDS011;42461;53.192;5.646;2022-08-21T02:58:21;9.15;;;5.60;;
56577;SDS011;42461;53.192;5.646;2022-08-21T03:00:48;8.15;;;5.47;;
56577;SDS011;42461;53.192;5.646;2022-08-21T03:03:14;8.13;;;5.60;;
56577;SDS011;42461;53.192;5.646;2022-08-21T03:05:41;8.07;;;5.93;;
56577;SDS011;42461;53.192;5.646;2022-08-21T03:08:08;9.40;;;5.60;;
56577;SDS011;42461;53.192;5.646;2022-08-21T03:10:35;9.95;;;6.18;;
56577;SDS011;42461;53.192;5.646;2022-08-21T03:13:02;7.57;;;5.80;;
56577;SDS011;42461;53.192;5.646;2022-08-21T03:15:29;9.07;;;5.97;;
56577;SDS011;42461;53.192;5.646;2022-08-21T03:17:55;6.75;;;5.50;;
56577;SDS011;42461;53.192;5.646;2022-08-21T03:20:23;9.70;;;5.68;;
56577;SDS011;42461;53.192;5.646;2022-08-21T03:22:49;8.30;;;5.93;;
56577;SDS011;42461;53.192;5.646;2022-08-21T03:25:15;7.82;;;5.90;;
56577;SDS011;42461;53.192;5.646;2022-08-21T03:27:42;9.50;;;6.43;;
56577;SDS011;42461;53.192;5.646;2022-08-21T03:30:09;9.45;;;6.10;;
56577;SDS011;42461;53.192;5.646;2022-08-21T03:32:35;8.93;;;5.80;;
56577;SDS011;42461;53.192;5.646;2022-08-21T03:35:02;10.15;;;5.88;;
56577;SDS011;42461;53.192;5.646;2022-08-21T03:37:28;10.18;;;5.68;;
56577;SDS011;42461;53.192;5.646;2022-08-21T03:39:54;7.60;;;5.93;;
56577;SDS011;42461;53.192;5.646;2022-08-21T03:42:21;9.32;;;6.15;;
56577;SDS011;42461;53.192;5.646;2022-08-21T03:44:47;10.65;;;5.90;;
56577;SDS011;42461;53.192;5.646;2022-08-21T03:47:13;9.00;;;5.95;;
56577;SDS011;42461;53.192;5.646;2022-08-21T03:49:39;9.60;;;5.93;;
56577;SDS011;42461;53.192;5.646;2022-08-21T03:52:06;9.32;;;6.13;;
56577;SDS011;42461;53.192;5.646;2022-08-21T03:54:32;10.27;;;6.43;;
56577;SDS011;42461;53.192;5.646;2022-08-21T03:56:58;9.15;;;6.45;;
56577;SDS011;42461;53.192;5.646;2022-08-21T03:59:24;11.25;;;6.47;;
56577;SDS011;42461;53.192;5.646;2022-08-21T04:01:54;12.05;;;7.03;;
56577;SDS011;42461;53.192;5.646;2022-08-21T04:04:21;10.85;;;6.68;;
56577;SDS011;42461;53.192;5.646;2022-08-21T04:06:47;9.95;;;6.30;;
56577;SDS011;42461;53.192;5.646;2022-08-21T04:09:15;8.55;;;6.25;;
56577;SDS011;42461;53.192;5.646;2022-08-21T04:11:41;12.48;;;6.70;;
56577;SDS011;42461;53.192;5.646;2022-08-21T04:14:07;8.82;;;6.53;;
56577;SDS011;42461;53.192;5.646;2022-08-21T04:16:33;10.38;;;6.53;;
56577;SDS011;42461;53.192;5.646;2022-08-21T04:18:59;8.93;;;6.57;;
56577;SDS011;42461;53.192;5.646;2022-08-21T04:21:25;10.30;;;6.10;;
56577;SDS011;42461;53.192;5.646;2022-08-21T04:23:51;10.40;;;6.80;;
56577;SDS011;42461;53.192;5.646;2022-08-21T04:26:19;8.60;;;6.35;;
56577;SDS011;42461;53.192;5.646;2022-08-21T04:28:45;9.75;;;6.60;;
56577;SDS011;42461;53.192;5.646;2022-08-21T04:31:11;9.25;;;6.97;;
56577;SDS011;42461;53.192;5.646;2022-08-21T04:33:37;8.52;;;6.40;;
56577;SDS011;42461;53.192;5.646;2022-08-21T04:36:04;10.68;;;6.55;;
56577;SDS011;42461;53.192;5.646;2022-08-21T04:38:31;11.38;;;7.10;;
56577;SDS011;42461;53.192;5.646;2022-08-21T04:40:57;9.88;;;5.88;;
56577;SDS011;42461;53.192;5.646;2022-08-21T04:43:23;10.05;;;6.47;;
56577;SDS011;42461;53.192;5.646;2022-08-21T04:45:50;10.63;;;7.03;;
56577;SDS011;42461;53.192;5.646;2022-08-21T04:48:17;11.57;;;6.82;;
56577;SDS011;42461;53.192;5.646;2022-08-21T04:55:45;9.32;;;6.47;;
56577;SDS011;42461;53.192;5.646;2022-08-21T04:58:12;12.18;;;6.70;;
56577;SDS011;42461;53.192;5.646;2022-08-21T05:00:39;10.02;;;6.57;;
56577;SDS011;42461;53.192;5.646;2022-08-21T05:03:05;9.88;;;6.85;;
56577;SDS011;42461;53.192;5.646;2022-08-21T05:05:32;11.32;;;6.43;;
56577;SDS011;42461;53.192;5.646;2022-08-21T05:07:59;10.68;;;6.38;;
56577;SDS011;42461;53.192;5.646;2022-08-21T05:10:26;12.88;;;6.28;;
56577;SDS011;42461;53.192;5.646;2022-08-21T05:12:52;8.73;;;6.25;;
56577;SDS011;42461;53.192;5.646;2022-08-21T05:15:19;9.57;;;5.97;;
56577;SDS011;42461;53.192;5.646;2022-08-21T05:17:45;13.90;;;5.90;;
56577;SDS011;42461;53.192;5.646;2022-08-21T05:20:12;9.75;;;6.25;;
56577;SDS011;42461;53.192;5.646;2022-08-21T05:22:38;12.55;;;6.88;;
56577;SDS011;42461;53.192;5.646;2022-08-21T05:25:05;9.50;;;5.55;;
56577;SDS011;42461;53.192;5.646;2022-08-21T05:27:31;9.95;;;5.82;;
56577;SDS011;42461;53.192;5.646;2022-08-21T05:29:58;9.88;;;5.95;;
56577;SDS011;42461;53.192;5.646;2022-08-21T05:32:25;11.98;;;5.82;;
56577;SDS011;42461;53.192;5.646;2022-08-21T05:34:53;11.40;;;5.88;;
56577;SDS011;42461;53.192;5.646;2022-08-21T05:37:19;9.75;;;6.00;;
56577;SDS011;42461;53.192;5.646;2022-08-21T05:39:46;10.35;;;5.43;;
56577;SDS011;42461;53.192;5.646;2022-08-21T05:42:12;10.13;;;5.57;;
56577;SDS011;42461;53.192;5.646;2022-08-21T05:44:38;9.82;;;5.30;;
56577;SDS011;42461;53.192;5.646;2022-08-21T05:47:05;13.23;;;5.43;;
56577;SDS011;42461;53.192;5.646;2022-08-21T05:49:31;11.35;;;4.82;;
56577;SDS011;42461;53.192;5.646;2022-08-21T05:51:57;9.80;;;5.28;;
56577;SDS011;42461;53.192;5.646;2022-08-21T05:54:23;12.75;;;5.13;;
56577;SDS011;42461;53.192;5.646;2022-08-21T05:56:50;11.52;;;4.82;;
56577;SDS011;42461;53.192;5.646;2022-08-21T05:59:16;10.20;;;4.82;;
56577;SDS011;42461;53.192;5.646;2022-08-21T06:01:43;12.27;;;4.60;;
56577;SDS011;42461;53.192;5.646;2022-08-21T06:04:10;8.60;;;4.28;;
56577;SDS011;42461;53.192;5.646;2022-08-21T06:06:36;8.38;;;4.70;;
56577;SDS011;42461;53.192;5.646;2022-08-21T06:09:03;14.15;;;4.88;;
56577;SDS011;42461;53.192;5.646;2022-08-21T06:11:30;10.10;;;4.65;;
56577;SDS011;42461;53.192;5.646;2022-08-21T06:13:56;9.23;;;4.70;;
56577;SDS011;42461;53.192;5.646;2022-08-21T06:16:31;13.15;;;5.07;;
56577;SDS011;42461;53.192;5.646;2022-08-21T06:18:57;10.35;;;4.63;;
56577;SDS011;42461;53.192;5.646;2022-08-21T06:21:23;10.85;;;4.50;;
56577;SDS011;42461;53.192;5.646;2022-08-21T06:23:49;11.90;;;4.30;;
56577;SDS011;42461;53.192;5.646;2022-08-21T06:26:15;10.68;;;4.45;;
56577;SDS011;42461;53.192;5.646;2022-08-21T06:28:41;12.57;;;4.10;;
56577;SDS011;42461;53.192;5.646;2022-08-21T06:31:12;10.85;;;4.10;;
56577;SDS011;42461;53.192;5.646;2022-08-21T06:33:38;9.77;;;4.32;;
56577;SDS011;42461;53.192;5.646;2022-08-21T06:36:04;12.20;;;4.38;;
56577;SDS011;42461;53.192;5.646;2022-08-21T06:38:30;11.05;;;4.10;;
56577;SDS011;42461;53.192;5.646;2022-08-21T06:40:56;8.48;;;3.95;;
56577;SDS011;42461;53.192;5.646;2022-08-21T06:43:22;11.00;;;4.03;;
56577;SDS011;42461;53.192;5.646;2022-08-21T06:45:48;12.60;;;4.22;;
56577;SDS011;42461;53.192;5.646;2022-08-21T06:48:15;9.32;;;4.43;;
56577;SDS011;42461;53.192;5.646;2022-08-21T06:50:41;9.40;;;4.43;;
56577;SDS011;42461;53.192;5.646;2022-08-21T06:53:08;13.48;;;4.75;;
56577;SDS011;42461;53.192;5.646;2022-08-21T06:55:36;12.68;;;4.20;;
56577;SDS011;42461;53.192;5.646;2022-08-21T06:58:03;12.63;;;4.22;;
56577;SDS011;42461;53.192;5.646;2022-08-21T07:00:29;9.38;;;3.80;;
56577;SDS011;42461;53.192;5.646;2022-08-21T07:02:55;9.98;;;3.85;;
56577;SDS011;42461;53.192;5.646;2022-08-21T07:05:22;9.27;;;3.58;;
56577;SDS011;42461;53.192;5.646;2022-08-21T07:07:50;15.45;;;4.38;;
56577;SDS011;42461;53.192;5.646;2022-08-21T07:10:16;15.48;;;4.20;;
56577;SDS011;42461;53.192;5.646;2022-08-21T07:12:42;8.73;;;3.72;;
56577;SDS011;42461;53.192;5.646;2022-08-21T07:15:08;12.25;;;3.90;;
56577;SDS011;42461;53.192;5.646;2022-08-21T07:17:34;16.48;;;4.38;;
56577;SDS011;42461;53.192;5.646;2022-08-21T07:20:01;9.48;;;3.75;;
56577;SDS011;42461;53.192;5.646;2022-08-21T07:22:27;10.05;;;3.70;;
56577;SDS011;42461;53.192;5.646;2022-08-21T07:24:53;10.30;;;4.07;;
56577;SDS011;42461;53.192;5.646;2022-08-21T07:27:19;13.85;;;4.47;;
56577;SDS011;42461;53.192;5.646;2022-08-21T07:29:46;11.60;;;4.25;;
56577;SDS011;42461;53.192;5.646;2022-08-21T07:32:12;11.38;;;4.60;;
56577;SDS011;42461;53.192;5.646;2022-08-21T07:34:40;9.30;;;3.50;;
56577;SDS011;42461;53.192;5.646;2022-08-21T07:37:06;11.80;;;3.50;;
56577;SDS011;42461;53.192;5.646;2022-08-21T07:39:32;11.65;;;3.70;;
56577;SDS011;42461;53.192;5.646;2022-08-21T07:41:58;8.05;;;3.50;;
56577;SDS011;42461;53.192;5.646;2022-08-21T07:44:24;11.63;;;4.20;;
56577;SDS011;42461;53.192;5.646;2022-08-21T07:46:49;11.73;;;4.32;;
56577;SDS011;42461;53.192;5.646;2022-08-21T07:49:16;11.52;;;4.25;;
56577;SDS011;42461;53.192;5.646;2022-08-21T07:51:42;11.77;;;3.90;;
56577;SDS011;42461;53.192;5.646;2022-08-21T07:54:08;11.38;;;4.25;;
56577;SDS011;42461;53.192;5.646;2022-08-21T07:56:34;11.88;;;3.80;;
56577;SDS011;42461;53.192;5.646;2022-08-21T07:59:00;8.32;;;3.53;;
56577;SDS011;42461;53.192;5.646;2022-08-21T08:01:28;10.65;;;3.85;;
56577;SDS011;42461;53.192;5.646;2022-08-21T08:03:54;25.90;;;5.43;;
56577;SDS011;42461;53.192;5.646;2022-08-21T08:06:21;9.85;;;3.85;;
56577;SDS011;42461;53.192;5.646;2022-08-21T08:08:48;11.02;;;4.10;;
56577;SDS011;42461;53.192;5.646;2022-08-21T08:11:14;7.55;;;3.63;;
56577;SDS011;42461;53.192;5.646;2022-08-21T08:13:44;10.38;;;3.70;;
56577;SDS011;42461;53.192;5.646;2022-08-21T08:16:10;11.65;;;3.85;;
56577;SDS011;42461;53.192;5.646;2022-08-21T08:18:37;7.13;;;3.40;;
56577;SDS011;42461;53.192;5.646;2022-08-21T08:21:04;12.77;;;3.63;;
56577;SDS011;42461;53.192;5.646;2022-08-21T08:23:30;9.02;;;3.40;;
56577;SDS011;42461;53.192;5.646;2022-08-21T08:25:57;10.75;;;3.15;;
56577;SDS011;42461;53.192;5.646;2022-08-21T08:28:23;9.30;;;3.22;;
56577;SDS011;42461;53.192;5.646;2022-08-21T08:30:49;13.00;;;3.60;;
56577;SDS011;42461;53.192;5.646;2022-08-21T08:33:15;7.78;;;3.00;;
56577;SDS011;42461;53.192;5.646;2022-08-21T08:35:45;8.32;;;3.17;;
56577;SDS011;42461;53.192;5.646;2022-08-21T08:38:12;10.05;;;3.00;;
56577;SDS011;42461;53.192;5.646;2022-08-21T08:43:19;8.75;;;3.22;;
56577;SDS011;42461;53.192;5.646;2022-08-21T08:45:49;7.25;;;2.78;;
56577;SDS011;42461;53.192;5.646;2022-08-21T08:48:21;7.75;;;3.22;;
56577;SDS011;42461;53.192;5.646;2022-08-21T08:50:53;8.68;;;2.83;;
56577;SDS011;42461;53.192;5.646;2022-08-21T08:53:25;16.00;;;3.10;;
56577;SDS011;42461;53.192;5.646;2022-08-21T08:55:54;8.57;;;3.30;;
56577;SDS011;42461;53.192;5.646;2022-08-21T08:58:31;7.35;;;2.72;;
56577;SDS011;42461;53.192;5.646;2022-08-21T09:00:58;7.70;;;2.97;;
56577;SDS011;42461;53.192;5.646;2022-08-21T09:03:24;6.80;;;2.80;;
56577;SDS011;42461;53.192;5.646;2022-08-21T09:05:55;7.18;;;2.50;;
56577;SDS011;42461;53.192;5.646;2022-08-21T09:11:08;5.72;;;2.70;;
56577;SDS011;42461;53.192;5.646;2022-08-21T09:13:43;11.70;;;3.60;;
56577;SDS011;42461;53.192;5.646;2022-08-21T09:21:42;8.95;;;2.75;;
56577;SDS011;42461;53.192;5.646;2022-08-21T09:26:47;7.65;;;2.47;;
56577;SDS011;42461;53.192;5.646;2022-08-21T09:29:14;8.20;;;2.80;;
56577;SDS011;42461;53.192;5.646;2022-08-21T09:31:42;10.00;;;2.70;;
56577;SDS011;42461;53.192;5.646;2022-08-21T09:34:09;8.90;;;3.35;;
56577;SDS011;42461;53.192;5.646;2022-08-21T09:39:03;6.60;;;2.65;;
56577;SDS011;42461;53.192;5.646;2022-08-21T09:41:30;6.93;;;3.10;;
56577;SDS011;42461;53.192;5.646;2022-08-21T09:43:57;6.72;;;2.78;;
56577;SDS011;42461;53.192;5.646;2022-08-21T09:46:24;4.15;;;2.20;;
56577;SDS011;42461;53.192;5.646;2022-08-21T09:48:54;4.97;;;2.17;;
56577;SDS011;42461;53.192;5.646;2022-08-21T09:51:22;5.75;;;2.22;;
56577;SDS011;42461;53.192;5.646;2022-08-21T09:53:53;7.22;;;2.22;;
56577;SDS011;42461;53.192;5.646;2022-08-21T09:56:31;8.65;;;2.78;;
56577;SDS011;42461;53.192;5.646;2022-08-21T09:59:27;5.03;;;1.73;;
56577;SDS011;42461;53.192;5.646;2022-08-21T10:01:56;7.88;;;2.10;;
56577;SDS011;42461;53.192;5.646;2022-08-21T10:04:30;5.47;;;1.90;;
56577;SDS011;42461;53.192;5.646;2022-08-21T10:07:13;6.15;;;2.30;;
56577;SDS011;42461;53.192;5.646;2022-08-21T10:09:40;3.95;;;1.90;;
56577;SDS011;42461;53.192;5.646;2022-08-21T10:14:48;4.95;;;2.00;;
56577;SDS011;42461;53.192;5.646;2022-08-21T10:17:20;5.97;;;2.20;;
56577;SDS011;42461;53.192;5.646;2022-08-21T10:37:39;8.18;;;2.40;;
56577;SDS011;42461;53.192;5.646;2022-08-21T10:40:15;4.97;;;2.00;;
56577;SDS011;42461;53.192;5.646;2022-08-21T10:45:32;4.97;;;2.28;;
56577;SDS011;42461;53.192;5.646;2022-08-21T10:48:04;5.57;;;2.42;;
56577;SDS011;42461;53.192;5.646;2022-08-21T10:50:37;6.60;;;2.25;;
56577;SDS011;42461;53.192;5.646;2022-08-21T10:55:33;7.07;;;2.42;;
56577;SDS011;42461;53.192;5.646;2022-08-21T10:58:02;5.20;;;2.30;;
56577;SDS011;42461;53.192;5.646;2022-08-21T11:00:34;5.65;;;2.13;;
56577;SDS011;42461;53.192;5.646;2022-08-21T11:03:07;3.58;;;1.70;;
56577;SDS011;42461;53.192;5.646;2022-08-21T11:05:45;5.18;;;2.05;;
56577;SDS011;42461;53.192;5.646;2022-08-21T11:08:15;4.63;;;2.13;;
56577;SDS011;42461;53.192;5.646;2022-08-21T11:10:49;5.85;;;2.45;;
56577;SDS011;42461;53.192;5.646;2022-08-21T11:16:07;5.03;;;2.00;;
56577;SDS011;42461;53.192;5.646;2022-08-21T11:18:37;5.80;;;1.92;;
56577;SDS011;42461;53.192;5.646;2022-08-21T11:21:15;6.85;;;2.30;;
56577;SDS011;42461;53.192;5.646;2022-08-21T11:26:40;5.32;;;2.00;;
56577;SDS011;42461;53.192;5.646;2022-08-21T11:29:19;7.05;;;2.30;;
56577;SDS011;42461;53.192;5.646;2022-08-21T11:31:50;4.38;;;2.10;;
56577;SDS011;42461;53.192;5.646;2022-08-21T11:37:15;4.85;;;1.90;;
56577;SDS011;42461;53.192;5.646;2022-08-21T11:39:57;6.72;;;2.13;;
56577;SDS011;42461;53.192;5.646;2022-08-21T11:42:46;4.38;;;1.88;;
56577;SDS011;42461;53.192;5.646;2022-08-21T11:55:26;3.70;;;1.70;;
56577;SDS011;42461;53.192;5.646;2022-08-21T11:58:00;4.05;;;1.85;;
56577;SDS011;42461;53.192;5.646;2022-08-21T12:01:03;5.80;;;1.90;;
56577;SDS011;42461;53.192;5.646;2022-08-21T12:03:25;3.65;;;1.80;;
56577;SDS011;42461;53.192;5.646;2022-08-21T12:05:53;4.85;;;1.88;;
56577;SDS011;42461;53.192;5.646;2022-08-21T12:11:05;3.63;;;1.90;;
56577;SDS011;42461;53.192;5.646;2022-08-21T12:13:36;4.75;;;2.05;;
56577;SDS011;42461;53.192;5.646;2022-08-21T12:16:13;5.03;;;2.08;;
56577;SDS011;42461;53.192;5.646;2022-08-21T12:18:40;3.53;;;1.70;;
56577;SDS011;42461;53.192;5.646;2022-08-21T12:21:23;6.70;;;2.33;;
56577;SDS011;42461;53.192;5.646;2022-08-21T12:23:59;3.55;;;1.60;;
56577;SDS011;42461;53.192;5.646;2022-08-21T12:26:26;5.88;;;2.10;;
56577;SDS011;42461;53.192;5.646;2022-08-21T12:29:03;4.10;;;2.20;;
56577;SDS011;42461;53.192;5.646;2022-08-21T12:31:29;3.28;;;1.60;;
56577;SDS011;42461;53.192;5.646;2022-08-21T12:33:59;4.57;;;2.10;;
56577;SDS011;42461;53.192;5.646;2022-08-21T12:36:30;7.63;;;2.05;;
56577;SDS011;42461;53.192;5.646;2022-08-21T12:39:02;5.43;;;1.98;;
56577;SDS011;42461;53.192;5.646;2022-08-21T12:41:32;6.00;;;2.63;;
56577;SDS011;42461;53.192;5.646;2022-08-21T12:44:09;6.32;;;2.08;;
56577;SDS011;42461;53.192;5.646;2022-08-21T12:46:40;4.53;;;2.15;;
56577;SDS011;42461;53.192;5.646;2022-08-21T12:49:13;4.90;;;2.10;;
56577;SDS011;42461;53.192;5.646;2022-08-21T12:51:48;3.72;;;1.60;;
56577;SDS011;42461;53.192;5.646;2022-08-21T12:54:23;5.00;;;1.83;;
56577;SDS011;42461;53.192;5.646;2022-08-21T12:56:57;4.97;;;2.25;;
56577;SDS011;42461;53.192;5.646;2022-08-21T12:59:23;7.80;;;1.90;;
56577;SDS011;42461;53.192;5.646;2022-08-21T13:01:50;3.33;;;1.63;;
56577;SDS011;42461;53.192;5.646;2022-08-21T13:04:21;2.88;;;1.55;;
56577;SDS011;42461;53.192;5.646;2022-08-21T13:06:52;4.20;;;1.50;;
56577;SDS011;42461;53.192;5.646;2022-08-21T13:09:20;5.60;;;1.70;;
56577;SDS011;42461;53.192;5.646;2022-08-21T13:11:47;6.30;;;2.00;;
56577;SDS011;42461;53.192;5.646;2022-08-21T13:14:17;6.38;;;2.13;;
56577;SDS011;42461;53.192;5.646;2022-08-21T13:16:44;5.25;;;1.58;;
56577;SDS011;42461;53.192;5.646;2022-08-21T13:19:11;5.28;;;1.80;;
56577;SDS011;42461;53.192;5.646;2022-08-21T13:21:42;5.63;;;1.60;;
56577;SDS011;42461;53.192;5.646;2022-08-21T13:26:34;6.88;;;1.90;;
56577;SDS011;42461;53.192;5.646;2022-08-21T13:29:06;5.35;;;1.70;;
56577;SDS011;42461;53.192;5.646;2022-08-21T13:31:32;4.35;;;1.98;;
56577;SDS011;42461;53.192;5.646;2022-08-21T13:33:58;3.42;;;1.77;;
56577;SDS011;42461;53.192;5.646;2022-08-21T13:36:25;4.03;;;1.80;;
56577;SDS011;42461;53.192;5.646;2022-08-21T13:38:52;5.50;;;1.95;;
56577;SDS011;42461;53.192;5.646;2022-08-21T13:41:20;5.93;;;1.77;;
56577;SDS011;42461;53.192;5.646;2022-08-21T13:43:55;5.95;;;1.85;;
56577;SDS011;42461;53.192;5.646;2022-08-21T13:46:22;5.18;;;1.98;;
56577;SDS011;42461;53.192;5.646;2022-08-21T13:48:50;6.45;;;1.80;;
56577;SDS011;42461;53.192;5.646;2022-08-21T13:51:16;3.65;;;1.88;;
56577;SDS011;42461;53.192;5.646;2022-08-21T13:56:28;5.55;;;2.17;;
56577;SDS011;42461;53.192;5.646;2022-08-21T13:58:55;5.32;;;1.85;;
56577;SDS011;42461;53.192;5.646;2022-08-21T14:01:24;5.10;;;1.85;;
56577;SDS011;42461;53.192;5.646;2022-08-21T14:03:52;5.25;;;1.80;;
56577;SDS011;42461;53.192;5.646;2022-08-21T14:06:23;6.80;;;2.20;;
56577;SDS011;42461;53.192;5.646;2022-08-21T14:08:50;9.40;;;2.53;;
56577;SDS011;42461;53.192;5.646;2022-08-21T14:11:17;6.18;;;1.73;;
56577;SDS011;42461;53.192;5.646;2022-08-21T14:13:44;6.00;;;1.88;;
56577;SDS011;42461;53.192;5.646;2022-08-21T14:16:14;4.88;;;2.17;;
56577;SDS011;42461;53.192;5.646;2022-08-21T14:18:44;7.28;;;2.00;;
56577;SDS011;42461;53.192;5.646;2022-08-21T14:21:10;5.00;;;2.00;;
56577;SDS011;42461;53.192;5.646;2022-08-21T14:23:38;5.30;;;2.22;;
56577;SDS011;42461;53.192;5.646;2022-08-21T14:26:05;4.72;;;1.98;;
56577;SDS011;42461;53.192;5.646;2022-08-21T14:28:32;6.57;;;1.80;;
56577;SDS011;42461;53.192;5.646;2022-08-21T14:30:59;5.20;;;2.00;;
56577;SDS011;42461;53.192;5.646;2022-08-21T14:33:37;8.38;;;2.22;;
56577;SDS011;42461;53.192;5.646;2022-08-21T14:36:03;6.07;;;1.92;;
56577;SDS011;42461;53.192;5.646;2022-08-21T14:38:29;6.90;;;2.17;;
56577;SDS011;42461;53.192;5.646;2022-08-21T14:40:58;6.43;;;2.00;;
56577;SDS011;42461;53.192;5.646;2022-08-21T14:43:25;4.95;;;1.88;;
56577;SDS011;42461;53.192;5.646;2022-08-21T14:45:52;6.90;;;2.20;;
56577;SDS011;42461;53.192;5.646;2022-08-21T14:48:18;7.30;;;2.20;;
56577;SDS011;42461;53.192;5.646;2022-08-21T14:50:44;4.97;;;2.13;;
56577;SDS011;42461;53.192;5.646;2022-08-21T14:53:11;4.80;;;1.98;;
56577;SDS011;42461;53.192;5.646;2022-08-21T14:55:37;6.03;;;2.33;;
56577;SDS011;42461;53.192;5.646;2022-08-21T14:58:22;5.65;;;2.28;;
56577;SDS011;42461;53.192;5.646;2022-08-21T15:00:50;7.82;;;2.38;;
56577;SDS011;42461;53.192;5.646;2022-08-21T15:03:16;8.90;;;2.60;;
56577;SDS011;42461;53.192;5.646;2022-08-21T15:05:42;6.95;;;2.08;;
56577;SDS011;42461;53.192;5.646;2022-08-21T15:08:08;4.38;;;1.92;;
56577;SDS011;42461;53.192;5.646;2022-08-21T15:10:34;5.78;;;2.13;;
56577;SDS011;42461;53.192;5.646;2022-08-21T15:13:01;5.28;;;1.88;;
56577;SDS011;42461;53.192;5.646;2022-08-21T15:15:28;5.13;;;2.05;;
56577;SDS011;42461;53.192;5.646;2022-08-21T15:17:54;4.15;;;2.08;;
56577;SDS011;42461;53.192;5.646;2022-08-21T15:20:20;7.22;;;1.95;;
56577;SDS011;42461;53.192;5.646;2022-08-21T15:22:46;7.43;;;2.20;;
56577;SDS011;42461;53.192;5.646;2022-08-21T15:25:12;5.32;;;2.10;;
56577;SDS011;42461;53.192;5.646;2022-08-21T15:27:38;5.25;;;2.38;;
56577;SDS011;42461;53.192;5.646;2022-08-21T15:30:05;5.13;;;2.10;;
56577;SDS011;42461;53.192;5.646;2022-08-21T15:32:31;4.15;;;2.03;;
56577;SDS011;42461;53.192;5.646;2022-08-21T15:34:57;6.65;;;2.20;;
56577;SDS011;42461;53.192;5.646;2022-08-21T15:37:23;6.68;;;2.42;;
56577;SDS011;42461;53.192;5.646;2022-08-21T15:39:51;6.28;;;2.40;;
56577;SDS011;42461;53.192;5.646;2022-08-21T15:42:17;6.80;;;2.78;;
56577;SDS011;42461;53.192;5.646;2022-08-21T15:44:44;5.88;;;2.58;;
56577;SDS011;42461;53.192;5.646;2022-08-21T15:47:12;7.65;;;2.33;;
56577;SDS011;42461;53.192;5.646;2022-08-21T15:49:38;4.82;;;2.63;;
56577;SDS011;42461;53.192;5.646;2022-08-21T15:52:04;7.63;;;2.75;;
56577;SDS011;42461;53.192;5.646;2022-08-21T15:54:30;7.57;;;2.50;;
56577;SDS011;42461;53.192;5.646;2022-08-21T15:56:56;8.27;;;2.70;;
56577;SDS011;42461;53.192;5.646;2022-08-21T15:59:23;7.55;;;2.97;;
56577;SDS011;42461;53.192;5.646;2022-08-21T16:01:50;6.72;;;2.65;;